createdAt,value
2023-02-17T00:02:43.570Z,3.13
2023-02-17T00:07:46.149Z,3.20
2023-02-17T00:12:45.493Z,3.12
2023-02-17T00:17:46.486Z,2.90
2023-02-17T00:22:46.556Z,2.89
2023-02-17T00:27:48.654Z,2.92
2023-02-17T00:32:50.486Z,3.03
2023-02-17T00:37:49.333Z,3.19
2023-02-17T00:42:51.633Z,3.31
2023-02-17T00:47:51.894Z,3.39
2023-02-17T00:52:51.013Z,3.35
2023-02-17T00:57:51.533Z,3.31
2023-02-17T01:02:53.235Z,3.21
2023-02-17T01:07:54.894Z,3.31
2023-02-17T01:12:54.402Z,3.46
2023-02-17T01:17:56.338Z,3.37
2023-02-17T01:23:00.011Z,3.39
2023-02-17T01:27:58.849Z,3.21
2023-02-17T01:32:59.797Z,3.00
2023-02-17T01:38:00.829Z,3.00
2023-02-17T01:43:02.615Z,3.00
2023-02-17T01:48:03.644Z,3.19
2023-02-17T01:53:04.810Z,3.35
2023-02-17T01:58:06.909Z,3.29
2023-02-17T02:03:05.751Z,3.17
2023-02-17T02:08:03.000Z,3.14
2023-02-17T02:13:10.784Z,3.18
2023-02-17T02:18:13.449Z,3.22
2023-02-17T02:23:12.639Z,3.38
2023-02-17T02:28:23.080Z,3.33
2023-02-17T02:33:34.766Z,3.23
2023-02-17T02:38:43.139Z,2.92
2023-02-17T02:43:42.993Z,3.06
2023-02-17T02:49:07.614Z,3.21
2023-02-17T02:54:11.027Z,3.35
2023-02-17T02:59:29.166Z,3.26
2023-02-17T03:04:51.983Z,3.32
2023-02-17T03:09:51.449Z,3.20
2023-02-17T03:14:50.836Z,3.10
2023-02-17T03:20:19.569Z,3.10
2023-02-17T03:25:21.349Z,2.93
2023-02-17T03:30:21.931Z,2.98
2023-02-17T03:35:23.414Z,3.02
2023-02-17T03:40:22.359Z,3.02
2023-02-17T03:45:20.503Z,2.88
2023-02-17T03:50:19.693Z,2.92
2023-02-17T03:55:30.896Z,2.83
2023-02-17T04:00:29.557Z,2.99
2023-02-17T04:05:29.830Z,3.16
2023-02-17T04:10:29.259Z,3.48
2023-02-17T04:15:30.145Z,3.37
2023-02-17T04:20:30.566Z,3.58
2023-02-17T04:25:31.841Z,3.57
2023-02-17T04:30:33.915Z,3.71
2023-02-17T04:35:33.544Z,3.88
2023-02-17T04:40:32.920Z,3.80
2023-02-17T04:45:32.915Z,3.91
2023-02-17T04:50:33.074Z,3.89
2023-02-17T04:55:34.393Z,4.00
2023-02-17T05:00:34.451Z,3.98
2023-02-17T05:05:37.865Z,3.96
2023-02-17T05:10:36.516Z,3.99
2023-02-17T05:15:35.045Z,4.06
2023-02-17T05:20:35.760Z,4.29
2023-02-17T05:25:35.047Z,4.42
2023-02-17T05:30:34.178Z,4.50
2023-02-17T05:35:34.747Z,4.67
2023-02-17T05:40:33.636Z,4.79
2023-02-17T05:45:33.421Z,4.91
2023-02-17T05:50:30.748Z,4.97
2023-02-17T05:55:32.937Z,5.02
2023-02-17T06:00:32.200Z,5.17
2023-02-17T06:05:30.851Z,5.27
2023-02-17T06:10:28.534Z,5.31
2023-02-17T06:15:31.492Z,5.38
2023-02-17T06:20:31.327Z,5.51
2023-02-17T06:25:33.660Z,5.61
2023-02-17T06:30:33.963Z,5.78
2023-02-17T06:35:38.220Z,5.96
2023-02-17T06:40:38.286Z,6.03
2023-02-17T06:45:46.551Z,6.21
2023-02-17T06:50:44.801Z,6.33
2023-02-17T06:55:44.248Z,6.34
2023-02-17T07:00:49.760Z,6.31
2023-02-17T07:05:50.249Z,6.60
2023-02-17T07:10:53.294Z,6.48
2023-02-17T07:15:52.157Z,6.55
2023-02-17T07:20:52.352Z,6.58
2023-02-17T07:25:49.473Z,6.78
2023-02-17T07:30:47.390Z,6.86
2023-02-17T07:35:46.305Z,6.85
2023-02-17T07:41:10.225Z,6.86
2023-02-17T07:46:11.113Z,6.87
2023-02-17T07:51:10.124Z,7.03
2023-02-17T07:56:10.646Z,6.89
2023-02-17T08:01:12.332Z,6.82
2023-02-17T08:06:11.377Z,6.77
2023-02-17T08:11:31.016Z,6.80
2023-02-17T08:16:33.126Z,6.96
2023-02-17T08:22:02.998Z,7.08
2023-02-17T08:27:04.762Z,7.27
2023-02-17T08:32:03.901Z,7.40
2023-02-17T08:37:04.356Z,7.60
2023-02-17T08:42:06.605Z,7.69
2023-02-17T08:47:09.665Z,7.90
2023-02-17T08:52:08.490Z,8.07
2023-02-17T08:57:09.892Z,8.31
2023-02-17T09:02:33.844Z,8.59
2023-02-17T09:07:33.040Z,8.80
2023-02-17T09:12:32.532Z,9.03
2023-02-17T09:17:31.795Z,9.29
2023-02-17T09:22:32.467Z,9.30
2023-02-17T09:27:30.807Z,9.22
2023-02-17T09:32:30.788Z,9.22
2023-02-17T09:37:29.911Z,9.38
2023-02-17T09:42:29.384Z,9.61
2023-02-17T09:47:51.526Z,9.70
2023-02-17T09:53:03.513Z,9.85
2023-02-17T09:58:23.888Z,10.02
2023-02-17T10:03:22.393Z,10.17
2023-02-17T10:08:23.804Z,10.38
2023-02-17T10:13:24.630Z,10.51
2023-02-17T10:18:28.662Z,10.71
2023-02-17T10:23:27.450Z,10.84
2023-02-17T10:28:39.432Z,11.15
2023-02-17T10:34:00.660Z,11.36
2023-02-17T10:39:12.423Z,11.67
2023-02-17T10:44:18.657Z,11.95
2023-02-17T10:49:27.195Z,12.22
2023-02-17T10:54:39.201Z,12.42
2023-02-17T10:59:41.438Z,12.65
2023-02-17T11:04:45.866Z,12.90
2023-02-17T11:09:50.132Z,12.93
2023-02-17T11:14:51.358Z,13.02
2023-02-17T11:19:57.184Z,13.05
2023-02-17T11:25:21.932Z,13.04
2023-02-17T11:30:19.993Z,12.94
2023-02-17T11:35:23.908Z,13.12
2023-02-17T11:40:54.026Z,13.33
2023-02-17T11:45:57.730Z,13.43
2023-02-17T11:51:00.615Z,13.38
2023-02-17T11:56:13.686Z,13.56
2023-02-17T12:01:39.480Z,13.69
2023-02-17T12:06:40.331Z,13.73
2023-02-17T12:11:41.305Z,13.76
2023-02-17T12:16:43.169Z,14.02
2023-02-17T12:21:57.708Z,14.38
2023-02-17T12:27:16.009Z,14.43
2023-02-17T12:32:20.991Z,14.55
2023-02-17T12:37:21.583Z,14.45
2023-02-17T12:42:19.172Z,14.55
2023-02-17T12:47:22.505Z,14.57
2023-02-17T12:52:24.784Z,14.83
2023-02-17T12:57:26.336Z,15.08
2023-02-17T13:02:25.034Z,15.08
2023-02-17T13:07:37.826Z,15.05
2023-02-17T13:12:39.129Z,15.06
2023-02-17T13:17:44.248Z,15.12
2023-02-17T13:22:46.007Z,15.11
2023-02-17T13:27:46.379Z,14.96
2023-02-17T13:32:46.738Z,14.89
2023-02-17T13:37:46.990Z,15.01
2023-02-17T13:42:45.041Z,15.26
2023-02-17T13:47:46.342Z,15.27
2023-02-17T13:52:47.318Z,15.27
2023-02-17T13:57:47.723Z,15.26
2023-02-17T14:02:46.694Z,15.39
2023-02-17T14:07:47.617Z,15.43
2023-02-17T14:12:45.721Z,15.51
2023-02-17T14:17:44.906Z,15.53
2023-02-17T14:22:53.147Z,15.39
2023-02-17T14:28:00.185Z,15.43
2023-02-17T14:33:08.104Z,15.52
2023-02-17T14:38:10.248Z,15.54
2023-02-17T14:43:11.444Z,15.52
2023-02-17T14:48:14.954Z,15.53
2023-02-17T14:53:13.157Z,15.51
2023-02-17T14:58:14.520Z,15.46
2023-02-17T15:03:13.974Z,15.14
2023-02-17T15:08:16.406Z,14.94
2023-02-17T15:13:18.522Z,14.78
2023-02-17T15:18:17.720Z,14.60
2023-02-17T15:23:16.874Z,14.36
2023-02-17T15:28:17.824Z,14.17
2023-02-17T15:33:18.861Z,13.98
2023-02-17T15:38:18.182Z,13.73
2023-02-17T15:43:19.512Z,13.56
2023-02-17T15:48:51.695Z,13.47
2023-02-17T15:53:55.204Z,13.25
2023-02-17T15:58:54.666Z,13.12
2023-02-17T16:03:54.684Z,13.07
2023-02-17T16:08:54.880Z,12.94
2023-02-17T16:13:57.214Z,12.72
2023-02-17T16:18:56.190Z,12.76
2023-02-17T16:24:04.926Z,12.41
2023-02-17T16:29:07.465Z,12.24
2023-02-17T16:34:08.305Z,12.18
2023-02-17T16:39:31.474Z,11.93
2023-02-17T16:44:30.832Z,11.83
2023-02-17T16:49:32.786Z,11.75
2023-02-17T16:54:35.376Z,11.67
2023-02-17T16:59:34.448Z,11.61
2023-02-17T17:04:39.236Z,11.64
2023-02-17T17:09:37.166Z,11.61
2023-02-17T17:14:38.583Z,11.55
2023-02-17T17:19:41.074Z,11.47
2023-02-17T17:24:39.956Z,11.42
2023-02-17T17:29:42.207Z,11.37
2023-02-17T17:35:01.907Z,11.46
2023-02-17T17:40:03.303Z,11.41
2023-02-17T17:45:07.342Z,11.42
2023-02-17T17:50:10.210Z,11.25
2023-02-17T17:55:18.742Z,11.38
2023-02-17T18:00:22.016Z,11.44
2023-02-17T18:05:21.641Z,11.41
2023-02-17T18:10:25.511Z,11.42
2023-02-17T18:15:25.839Z,11.38
2023-02-17T18:20:33.161Z,11.34
2023-02-17T18:25:32.764Z,11.27
2023-02-17T18:30:33.686Z,11.16
2023-02-17T18:35:38.869Z,11.21
2023-02-17T18:40:40.585Z,11.11
2023-02-17T18:45:39.005Z,11.01
2023-02-17T18:50:43.676Z,10.89
2023-02-17T18:55:43.274Z,10.82
2023-02-17T19:00:47.479Z,10.81
2023-02-17T19:05:50.593Z,10.80
2023-02-17T19:10:52.439Z,10.61
2023-02-17T19:16:01.305Z,10.65
2023-02-17T19:21:11.020Z,10.56
2023-02-17T19:26:12.517Z,10.55
2023-02-17T19:31:13.314Z,10.47
2023-02-17T19:36:15.813Z,10.41
2023-02-17T19:41:18.683Z,10.35
2023-02-17T19:46:23.111Z,10.26
2023-02-17T19:51:22.470Z,10.19
2023-02-17T19:56:22.477Z,10.07
2023-02-17T20:01:24.431Z,9.93
2023-02-17T20:06:23.903Z,9.75
2023-02-17T20:11:28.151Z,9.58
2023-02-17T20:16:30.675Z,9.39
2023-02-17T20:21:29.788Z,9.31
2023-02-17T20:26:33.565Z,9.18
2023-02-17T20:31:38.385Z,9.05
2023-02-17T20:36:40.836Z,8.87
2023-02-17T20:41:41.470Z,8.92
2023-02-17T20:46:39.679Z,8.97
2023-02-17T20:51:57.594Z,8.92
2023-02-17T20:56:59.609Z,8.83
2023-02-17T21:01:57.501Z,8.80
2023-02-17T21:06:56.720Z,8.62
2023-02-17T21:11:55.682Z,8.62
2023-02-17T21:16:54.552Z,8.63
2023-02-17T21:21:53.632Z,8.79
2023-02-17T21:26:56.109Z,8.80
2023-02-17T21:31:56.069Z,9.02
2023-02-17T21:36:54.180Z,9.04
2023-02-17T21:41:52.312Z,9.09
2023-02-17T21:46:54.759Z,9.14
2023-02-17T21:51:55.193Z,9.20
2023-02-17T21:56:56.077Z,9.13
2023-02-17T22:01:54.033Z,9.17
2023-02-17T22:06:52.631Z,9.05
2023-02-17T22:11:51.969Z,9.01
2023-02-17T22:16:49.413Z,8.99
2023-02-17T22:21:48.882Z,8.96
2023-02-17T22:26:50.226Z,8.99
2023-02-17T22:31:55.847Z,9.04
2023-02-17T22:36:55.279Z,9.11
2023-02-17T22:41:56.897Z,9.37
2023-02-17T22:46:59.844Z,9.50
2023-02-17T22:52:01.366Z,9.49
2023-02-17T22:57:02.269Z,9.53
2023-02-17T23:02:01.805Z,9.55
2023-02-17T23:07:00.607Z,9.47
2023-02-17T23:11:59.894Z,9.36
2023-02-17T23:17:03.579Z,9.39
2023-02-17T23:22:05.796Z,9.32
2023-02-17T23:27:06.652Z,9.24
2023-02-17T23:32:08.314Z,9.20
2023-02-17T23:37:22.938Z,8.98
2023-02-17T23:42:25.928Z,8.82
2023-02-17T23:47:26.742Z,8.86
2023-02-17T23:52:28.203Z,8.78
2023-02-17T23:57:29.893Z,8.73
